createdAt,value
2022-12-13T00:00:00.035Z,19.70
2022-12-13T00:00:42.427Z,18.83
2022-12-13T00:01:25.665Z,18.37
2022-12-13T00:02:07.431Z,19.00
2022-12-13T00:02:49.069Z,19.27
2022-12-13T00:03:30.905Z,18.67
2022-12-13T00:04:13.772Z,19.30
2022-12-13T00:04:55.427Z,18.50
2022-12-13T00:05:43.967Z,19.03
2022-12-13T00:06:26.323Z,20.13
2022-12-13T00:07:08.189Z,19.20
2022-12-13T00:07:49.898Z,21.23
2022-12-13T00:08:31.602Z,18.83
2022-12-13T00:09:15.058Z,21.37
2022-12-13T00:09:56.725Z,21.37
2022-12-13T00:10:38.297Z,20.30
2022-12-13T00:11:19.997Z,19.93
2022-12-13T00:12:01.573Z,18.70
2022-12-13T00:12:43.227Z,19.17
2022-12-13T00:13:24.803Z,20.27
2022-12-13T00:14:06.404Z,19.67
2022-12-13T00:14:47.994Z,20.10
2022-12-13T00:15:29.627Z,19.20
2022-12-13T00:16:14.757Z,21.57
2022-12-13T00:16:56.348Z,20.53
2022-12-13T00:17:38.082Z,20.13
2022-12-13T00:18:19.718Z,19.20
2022-12-13T00:19:01.566Z,20.00
2022-12-13T00:19:43.204Z,19.57
2022-12-13T00:20:24.816Z,21.87
2022-12-13T00:21:08.939Z,22.93
2022-12-13T00:21:50.572Z,20.17
2022-12-13T00:22:32.160Z,22.20
2022-12-13T00:23:13.806Z,19.70
2022-12-13T00:23:56.059Z,19.07
2022-12-13T00:24:42.866Z,20.60
2022-12-13T00:25:27.443Z,20.20
2022-12-13T00:26:18.526Z,19.30
2022-12-13T00:27:00.726Z,20.10
2022-12-13T00:27:42.341Z,19.37
2022-12-13T00:28:24.929Z,20.57
2022-12-13T00:29:07.936Z,21.90
2022-12-13T00:29:49.615Z,19.97
2022-12-13T00:30:34.011Z,19.43
2022-12-13T00:32:18.327Z,19.10
2022-12-13T00:33:00.128Z,18.43
2022-12-13T00:33:41.769Z,18.00
2022-12-13T00:34:24.109Z,19.27
2022-12-13T00:35:06.489Z,18.03
2022-12-13T00:35:48.060Z,17.97
2022-12-13T00:36:29.689Z,18.33
2022-12-13T00:37:11.385Z,17.80
2022-12-13T00:37:53.031Z,17.80
2022-12-13T00:38:35.552Z,19.07
2022-12-13T00:39:18.967Z,18.90
2022-12-13T00:40:00.649Z,21.67
2022-12-13T00:40:42.241Z,21.60
2022-12-13T00:41:23.862Z,27.07
2022-12-13T00:42:06.089Z,24.00
2022-12-13T00:42:47.713Z,23.07
2022-12-13T00:43:29.406Z,27.03
2022-12-13T00:44:14.131Z,23.50
2022-12-13T00:44:55.812Z,27.87
2022-12-13T00:45:39.541Z,24.97
2022-12-13T00:46:22.617Z,23.80
2022-12-13T00:47:04.230Z,22.23
2022-12-13T00:47:46.385Z,25.30
2022-12-13T00:48:28.413Z,28.47
2022-12-13T00:49:11.580Z,25.33
2022-12-13T00:49:53.133Z,25.23
2022-12-13T00:50:35.575Z,25.03
2022-12-13T00:51:17.812Z,26.53
2022-12-13T00:52:00.118Z,29.07
2022-12-13T00:52:42.048Z,27.57
2022-12-13T00:53:23.640Z,24.00
2022-12-13T00:54:05.838Z,23.50
2022-12-13T00:54:47.427Z,22.60
2022-12-13T00:55:28.990Z,20.93
2022-12-13T00:56:13.114Z,20.23
2022-12-13T00:56:54.773Z,21.37
2022-12-13T00:57:36.417Z,19.40
2022-12-13T00:58:18.022Z,18.90
2022-12-13T00:59:00.096Z,18.40
2022-12-13T00:59:41.760Z,17.93
2022-12-13T01:00:23.462Z,18.70
2022-12-13T01:01:07.613Z,19.90
2022-12-13T01:01:49.371Z,17.87
2022-12-13T01:02:31.013Z,19.57
2022-12-13T01:03:25.307Z,17.83
2022-12-13T01:04:07.853Z,18.43
2022-12-13T01:04:50.299Z,18.10
2022-12-13T01:06:11.138Z,18.63
2022-12-13T01:06:36.895Z,17.77
2022-12-13T01:07:18.519Z,18.20
2022-12-13T01:08:00.168Z,19.30
2022-12-13T01:08:41.801Z,23.50
2022-12-13T01:09:31.088Z,26.03
2022-12-13T01:10:12.805Z,23.73
2022-12-13T01:10:55.086Z,23.33
2022-12-13T01:11:36.802Z,22.07
2022-12-13T01:12:18.422Z,25.90
2022-12-13T01:13:00.278Z,23.63
2022-12-13T01:13:42.375Z,22.73
2022-12-13T01:14:24.253Z,23.70
2022-12-13T01:15:06.926Z,23.80
2022-12-13T01:15:48.551Z,24.30
2022-12-13T01:16:30.234Z,23.83
2022-12-13T01:17:12.107Z,25.03
2022-12-13T01:17:53.735Z,24.70
2022-12-13T01:18:36.213Z,24.60
2022-12-13T01:19:17.845Z,27.03
2022-12-13T01:19:59.465Z,26.43
2022-12-13T01:20:41.124Z,25.77
2022-12-13T01:21:22.724Z,26.87
2022-12-13T01:22:06.360Z,26.33
2022-12-13T01:22:47.978Z,25.80
2022-12-13T01:23:29.774Z,26.27
2022-12-13T01:24:11.486Z,25.23
2022-12-13T01:24:53.067Z,24.60
2022-12-13T01:25:37.723Z,25.90
2022-12-13T01:26:21.673Z,25.60
2022-12-13T01:27:03.422Z,24.53
2022-12-13T01:27:45.018Z,24.60
2022-12-13T01:28:26.618Z,23.83
2022-12-13T01:29:08.932Z,24.07
2022-12-13T01:29:50.533Z,24.13
2022-12-13T01:30:32.258Z,24.60
2022-12-13T01:31:16.820Z,21.73
2022-12-13T01:31:58.520Z,22.07
2022-12-13T01:32:40.138Z,22.77
2022-12-13T01:33:22.322Z,22.80
2022-12-13T01:34:10.442Z,23.10
2022-12-13T01:34:52.223Z,23.93
2022-12-13T01:35:35.163Z,22.60
2022-12-13T01:36:19.345Z,23.67
2022-12-13T01:37:08.794Z,24.50
2022-12-13T01:37:50.447Z,25.03
2022-12-13T01:38:32.509Z,24.23
2022-12-13T01:39:19.998Z,25.10
2022-12-13T01:40:16.200Z,25.57
2022-12-13T01:40:59.172Z,25.40
2022-12-13T01:41:41.711Z,23.80
2022-12-13T01:42:23.304Z,25.13
2022-12-13T01:43:14.691Z,25.30
2022-12-13T01:44:03.413Z,25.13
2022-12-13T01:45:07.198Z,24.53
2022-12-13T01:45:48.815Z,28.50
2022-12-13T01:46:33.561Z,48.03
2022-12-13T01:47:18.255Z,48.73
2022-12-13T01:48:06.554Z,41.30
2022-12-13T01:49:19.966Z,26.40
2022-12-13T01:50:08.671Z,26.20
2022-12-13T01:50:56.831Z,24.53
2022-12-13T01:51:47.638Z,24.87
2022-12-13T01:52:33.559Z,23.47
2022-12-13T01:53:18.724Z,21.80
2022-12-13T01:54:03.208Z,29.17
2022-12-13T01:54:48.493Z,27.33
2022-12-13T01:55:34.330Z,29.93
2022-12-13T01:56:29.020Z,22.77
2022-12-13T01:57:12.982Z,21.93
2022-12-13T01:57:58.022Z,21.80
2022-12-13T01:58:41.585Z,21.70
2022-12-13T01:59:23.890Z,21.03
2022-12-13T02:00:08.562Z,21.50
2022-12-13T02:00:51.137Z,20.73
2022-12-13T02:01:33.098Z,21.37
2022-12-13T02:02:15.841Z,22.40
2022-12-13T02:02:59.727Z,22.10
2022-12-13T02:03:41.731Z,24.80
2022-12-13T02:04:31.471Z,21.63
2022-12-13T02:05:24.384Z,21.23
2022-12-13T02:06:18.039Z,21.70
2022-12-13T02:07:00.485Z,20.83
2022-12-13T02:07:44.620Z,22.03
2022-12-13T02:08:26.665Z,22.50
2022-12-13T02:09:10.438Z,22.13
2022-12-13T02:09:57.021Z,21.03
2022-12-13T02:10:39.803Z,22.43
2022-12-13T02:11:21.586Z,23.50
2022-12-13T02:12:04.135Z,28.33
2022-12-13T02:12:45.836Z,26.40
2022-12-13T02:13:27.415Z,28.03
2022-12-13T02:14:09.861Z,25.87
2022-12-13T02:14:52.755Z,25.10
2022-12-13T02:15:50.307Z,25.23
2022-12-13T02:17:01.355Z,21.33
2022-12-13T02:18:04.524Z,24.30
2022-12-13T02:19:12.902Z,24.10
2022-12-13T02:20:45.564Z,24.77
2022-12-13T02:21:41.966Z,24.30
2022-12-13T02:22:37.721Z,22.77
2022-12-13T02:23:41.125Z,20.83
2022-12-13T02:24:28.358Z,21.00
2022-12-13T02:25:53.241Z,22.07
2022-12-13T02:26:59.536Z,20.93
2022-12-13T02:28:30.763Z,20.83
2022-12-13T02:29:30.330Z,20.10
2022-12-13T02:30:20.574Z,20.17
2022-12-13T02:31:12.680Z,20.30
2022-12-13T02:32:21.162Z,22.10
2022-12-13T02:33:11.642Z,21.07
2022-12-13T02:34:00.947Z,24.40
2022-12-13T02:34:51.421Z,21.97
2022-12-13T02:35:54.904Z,22.67
2022-12-13T02:37:01.143Z,22.43
2022-12-13T02:38:03.861Z,22.00
2022-12-13T02:39:30.496Z,20.87
2022-12-13T02:40:23.656Z,20.90
2022-12-13T02:41:15.631Z,20.53
2022-12-13T02:42:05.059Z,20.93
2022-12-13T02:43:03.578Z,21.23
2022-12-13T02:44:01.439Z,20.43
2022-12-13T02:44:51.112Z,19.50
2022-12-13T02:45:36.815Z,23.77
2022-12-13T02:46:23.123Z,26.30
2022-12-13T02:47:27.184Z,26.73
2022-12-13T02:48:12.123Z,25.17
2022-12-13T02:48:56.563Z,23.23
2022-12-13T02:49:43.860Z,27.10
2022-12-13T02:50:27.621Z,24.50
2022-12-13T02:51:11.847Z,27.37
2022-12-13T02:51:55.049Z,29.20
2022-12-13T02:52:40.431Z,26.97
2022-12-13T02:53:23.270Z,28.57
2022-12-13T02:54:04.982Z,23.13
2022-12-13T02:54:49.727Z,21.53
2022-12-13T02:55:35.829Z,20.63
2022-12-13T02:56:17.801Z,21.53
2022-12-13T02:57:00.281Z,20.43
2022-12-13T02:57:44.912Z,21.60
2022-12-13T02:58:32.887Z,22.03
2022-12-13T02:59:15.069Z,19.20
2022-12-13T03:00:01.114Z,18.90
2022-12-13T03:01:04.495Z,19.23
2022-12-13T03:02:31.000Z,19.20
2022-12-13T03:03:28.367Z,18.17
2022-12-13T03:04:26.425Z,18.57
2022-12-13T03:05:36.009Z,20.30
2022-12-13T03:06:49.793Z,20.53
2022-12-13T03:07:44.728Z,18.97
2022-12-13T03:08:30.858Z,18.57
2022-12-13T03:09:43.622Z,20.33
2022-12-13T03:10:33.189Z,25.23
2022-12-13T03:11:18.809Z,22.53
2022-12-13T03:12:37.406Z,20.70
2022-12-13T03:13:38.910Z,19.13
2022-12-13T03:14:22.737Z,19.60
2022-12-13T03:15:29.063Z,18.97
2022-12-13T03:16:23.770Z,20.53
2022-12-13T03:17:08.392Z,19.13
2022-12-13T03:18:02.686Z,19.57
2022-12-13T03:18:46.264Z,18.63
2022-12-13T03:19:27.920Z,19.13
2022-12-13T03:20:22.483Z,19.90
2022-12-13T03:21:08.921Z,18.53
2022-12-13T03:21:50.636Z,17.97
2022-12-13T03:22:34.588Z,19.03
2022-12-13T03:23:20.852Z,18.30
2022-12-13T03:24:02.425Z,19.47
2022-12-13T03:24:44.319Z,19.23
2022-12-13T03:25:32.254Z,25.50
2022-12-13T03:26:18.248Z,24.27
2022-12-13T03:26:59.949Z,23.47
2022-12-13T03:27:41.626Z,23.70
2022-12-13T03:28:23.392Z,22.70
2022-12-13T03:29:06.312Z,21.17
2022-12-13T03:29:47.889Z,21.47
2022-12-13T03:30:31.677Z,20.30
2022-12-13T03:31:13.301Z,20.70
2022-12-13T03:31:54.945Z,20.67
2022-12-13T03:32:36.629Z,20.37
2022-12-13T03:33:18.469Z,25.57
2022-12-13T03:34:00.088Z,32.37
2022-12-13T03:34:43.571Z,26.33
2022-12-13T03:35:34.692Z,34.27
2022-12-13T03:36:26.303Z,31.33
2022-12-13T03:37:07.934Z,42.43
2022-12-13T03:37:50.086Z,39.87
2022-12-13T03:38:32.151Z,37.50
2022-12-13T03:39:13.852Z,40.07
2022-12-13T03:39:55.926Z,41.83
2022-12-13T03:40:37.640Z,41.30
2022-12-13T03:41:23.025Z,41.97
2022-12-13T03:42:04.768Z,42.43
2022-12-13T03:42:46.904Z,40.53
2022-12-13T03:43:29.102Z,39.50
2022-12-13T03:44:10.748Z,40.40
2022-12-13T03:44:52.310Z,37.70
2022-12-13T03:45:33.919Z,29.93
2022-12-13T03:46:15.981Z,30.20
2022-12-13T03:46:57.611Z,30.57
2022-12-13T03:47:42.512Z,34.77
2022-12-13T03:48:24.401Z,33.53
2022-12-13T03:49:06.087Z,32.93
2022-12-13T03:49:54.072Z,31.40
2022-12-13T03:50:36.008Z,28.80
2022-12-13T03:51:17.712Z,24.73
2022-12-13T03:51:59.281Z,24.13
2022-12-13T03:52:42.163Z,23.33
2022-12-13T03:53:32.642Z,22.90
2022-12-13T03:54:15.605Z,26.50
2022-12-13T03:54:57.266Z,23.27
2022-12-13T03:55:38.912Z,22.93
2022-12-13T03:56:20.532Z,21.33
2022-12-13T03:57:02.156Z,24.33
2022-12-13T03:57:43.991Z,26.03
2022-12-13T03:58:25.556Z,24.57
2022-12-13T03:59:17.118Z,23.40
2022-12-13T03:59:58.759Z,24.33
2022-12-13T04:00:40.678Z,23.63
2022-12-13T04:01:23.232Z,25.27
2022-12-13T04:02:05.030Z,23.87
2022-12-13T04:02:46.725Z,23.50
2022-12-13T04:03:28.408Z,23.87
2022-12-13T04:04:10.030Z,21.57
2022-12-13T04:04:51.655Z,20.07
2022-12-13T04:05:33.316Z,20.57
2022-12-13T04:06:22.857Z,19.17
2022-12-13T04:07:05.069Z,19.17
2022-12-13T04:08:04.357Z,18.33
2022-12-13T04:09:03.918Z,18.27
2022-12-13T04:09:45.524Z,22.50
2022-12-13T04:10:27.928Z,24.40
2022-12-13T04:11:28.151Z,22.90
2022-12-13T04:12:30.309Z,20.23
2022-12-13T04:13:30.671Z,21.57
2022-12-13T04:14:12.414Z,21.77
2022-12-13T04:15:05.062Z,22.47
2022-12-13T04:15:48.963Z,22.10
2022-12-13T04:16:30.892Z,21.60
2022-12-13T04:17:12.541Z,21.80
2022-12-13T04:17:54.098Z,22.87
2022-12-13T04:18:35.689Z,21.80
2022-12-13T04:19:23.334Z,21.03
2022-12-13T04:20:06.186Z,20.30
2022-12-13T04:20:48.049Z,19.97
2022-12-13T04:21:29.642Z,19.47
2022-12-13T04:22:11.291Z,19.50
2022-12-13T04:22:52.942Z,19.10
2022-12-13T04:23:34.554Z,19.57
2022-12-13T04:24:16.427Z,19.43
2022-12-13T04:24:58.065Z,18.97
2022-12-13T04:25:41.089Z,18.23
2022-12-13T04:26:22.707Z,19.50
2022-12-13T04:27:04.365Z,20.67
2022-12-13T04:27:46.495Z,19.00
2022-12-13T04:28:28.049Z,18.90
2022-12-13T04:29:09.630Z,19.43
2022-12-13T04:29:51.182Z,18.43
2022-12-13T04:30:33.824Z,17.97
2022-12-13T04:31:15.544Z,19.60
2022-12-13T04:31:57.258Z,18.63
2022-12-13T04:32:39.012Z,18.90
2022-12-13T04:33:21.867Z,19.30
2022-12-13T04:34:03.578Z,19.40
2022-12-13T04:34:45.140Z,19.87
2022-12-13T04:35:27.186Z,18.93
2022-12-13T04:36:08.803Z,18.80
2022-12-13T04:36:50.378Z,19.60
2022-12-13T04:37:32.281Z,18.80
2022-12-13T04:38:13.906Z,18.73
2022-12-13T04:38:55.501Z,19.60
2022-12-13T04:39:37.068Z,19.50
2022-12-13T04:40:21.644Z,19.13
2022-12-13T04:41:16.161Z,18.37
2022-12-13T04:41:57.730Z,17.83
2022-12-13T04:42:39.653Z,18.57
2022-12-13T04:43:21.245Z,17.40
2022-12-13T04:44:03.882Z,18.50
2022-12-13T04:44:46.285Z,17.70
2022-12-13T04:45:28.262Z,17.67
2022-12-13T04:46:10.026Z,18.60
2022-12-13T04:46:51.677Z,17.83
2022-12-13T04:47:33.312Z,18.60
2022-12-13T04:48:30.461Z,19.00
2022-12-13T04:49:13.137Z,17.90
2022-12-13T04:49:55.154Z,19.13
2022-12-13T04:50:36.943Z,18.10
2022-12-13T04:51:18.513Z,19.20
2022-12-13T04:52:01.666Z,17.90
2022-12-13T04:52:44.224Z,18.30
2022-12-13T04:53:25.818Z,18.90
2022-12-13T04:54:23.683Z,19.40
2022-12-13T04:55:06.810Z,17.77
2022-12-13T04:55:48.442Z,18.83
2022-12-13T04:56:30.048Z,17.57
2022-12-13T04:57:12.151Z,17.50
2022-12-13T04:57:53.795Z,18.80
2022-12-13T04:58:35.409Z,19.53
2022-12-13T04:59:17.442Z,18.33
2022-12-13T04:59:59.240Z,19.57
2022-12-13T05:00:41.072Z,18.57
2022-12-13T05:01:26.252Z,18.77
2022-12-13T05:02:10.130Z,18.33
2022-12-13T05:02:51.829Z,18.23
2022-12-13T05:03:33.624Z,17.67
2022-12-13T05:04:15.200Z,17.30
2022-12-13T05:04:56.846Z,18.03
2022-12-13T05:05:40.521Z,18.40
2022-12-13T05:06:26.604Z,19.00
2022-12-13T05:07:09.465Z,18.53
2022-12-13T05:07:51.142Z,19.03
2022-12-13T05:08:32.904Z,18.63
2022-12-13T05:09:14.455Z,17.93
2022-12-13T05:09:56.013Z,17.70
2022-12-13T05:10:38.299Z,18.87
2022-12-13T05:11:20.045Z,19.87
2022-12-13T05:12:04.786Z,18.63
2022-12-13T05:13:04.843Z,19.53
2022-12-13T05:13:46.495Z,18.40
2022-12-13T05:14:28.200Z,19.17
2022-12-13T05:15:09.888Z,17.97
2022-12-13T05:15:58.865Z,19.57
2022-12-13T05:16:40.538Z,19.40
2022-12-13T05:17:22.268Z,19.70
2022-12-13T05:18:10.041Z,19.63
2022-12-13T05:18:52.459Z,23.67
2022-12-13T05:19:34.021Z,22.47
2022-12-13T05:20:15.714Z,19.50
2022-12-13T05:21:01.190Z,20.77
2022-12-13T05:21:42.796Z,22.43
2022-12-13T05:22:24.399Z,22.37
2022-12-13T05:23:06.016Z,22.23
2022-12-13T05:23:47.569Z,21.07
2022-12-13T05:24:30.782Z,21.57
2022-12-13T05:25:12.469Z,21.07
2022-12-13T05:25:54.185Z,20.67
2022-12-13T05:26:36.227Z,20.23
2022-12-13T05:27:24.484Z,20.17
2022-12-13T05:28:08.833Z,18.10
2022-12-13T05:29:09.442Z,20.03
2022-12-13T05:29:54.828Z,19.40
2022-12-13T05:30:45.662Z,18.93
2022-12-13T05:31:27.314Z,18.53
2022-12-13T05:32:08.941Z,19.10
2022-12-13T05:32:50.586Z,19.03
2022-12-13T05:33:32.191Z,19.40
2022-12-13T05:34:14.051Z,20.40
2022-12-13T05:34:55.655Z,20.33
2022-12-13T05:35:37.598Z,19.87
2022-12-13T05:36:19.487Z,19.87
2022-12-13T05:37:01.350Z,20.57
2022-12-13T05:37:42.975Z,19.23
2022-12-13T05:38:24.577Z,19.80
2022-12-13T05:39:06.220Z,19.20
2022-12-13T05:40:09.822Z,18.87
2022-12-13T05:40:51.405Z,18.77
2022-12-13T05:41:35.717Z,20.27
2022-12-13T05:42:17.286Z,20.37
2022-12-13T05:43:00.828Z,20.57
2022-12-13T05:43:43.914Z,20.33
2022-12-13T05:44:25.653Z,19.43
2022-12-13T05:45:08.179Z,20.00
2022-12-13T05:45:50.755Z,20.50
2022-12-13T05:46:35.607Z,20.17
2022-12-13T05:47:21.563Z,18.83
2022-12-13T05:48:03.446Z,20.07
2022-12-13T05:48:45.310Z,19.03
2022-12-13T05:49:26.913Z,19.40
2022-12-13T05:50:08.983Z,19.37
2022-12-13T05:50:50.586Z,19.20
2022-12-13T05:51:32.274Z,18.23
2022-12-13T05:52:18.399Z,19.47
2022-12-13T05:53:00.042Z,19.33
2022-12-13T05:53:42.324Z,19.23
2022-12-13T05:54:23.927Z,23.97
2022-12-13T05:55:05.959Z,24.93
2022-12-13T05:55:47.543Z,22.63
2022-12-13T05:56:29.142Z,19.97
2022-12-13T05:57:10.798Z,19.73
2022-12-13T05:57:52.380Z,20.33
2022-12-13T05:58:35.785Z,18.80
2022-12-13T05:59:17.835Z,17.57
2022-12-13T05:59:59.439Z,18.87
2022-12-13T06:00:41.027Z,18.73
2022-12-13T06:01:22.660Z,18.93
2022-12-13T06:02:04.487Z,20.07
2022-12-13T06:02:46.297Z,18.50
2022-12-13T06:03:28.075Z,19.23
2022-12-13T06:04:09.788Z,19.87
2022-12-13T06:04:51.431Z,18.27
2022-12-13T06:05:33.048Z,18.37
2022-12-13T06:06:17.436Z,18.70
2022-12-13T06:06:59.079Z,18.67
2022-12-13T06:07:40.697Z,19.17
2022-12-13T06:08:23.872Z,19.30
2022-12-13T06:09:07.684Z,20.43
2022-12-13T06:09:49.281Z,17.67
2022-12-13T06:10:34.989Z,18.37
2022-12-13T06:11:31.357Z,18.50
2022-12-13T06:12:31.821Z,18.47
2022-12-13T06:13:21.486Z,17.80
2022-12-13T06:14:21.768Z,17.37
2022-12-13T06:15:21.625Z,18.40
2022-12-13T06:16:05.948Z,16.03
2022-12-13T06:16:47.682Z,15.97
2022-12-13T06:17:33.987Z,15.87
2022-12-13T06:18:15.680Z,17.30
2022-12-13T06:19:03.823Z,17.90
2022-12-13T06:19:49.075Z,17.30
2022-12-13T06:20:30.721Z,17.10
2022-12-13T06:21:12.302Z,17.07
2022-12-13T06:21:55.067Z,16.90
2022-12-13T06:22:36.621Z,17.53
2022-12-13T06:23:18.238Z,19.17
2022-12-13T06:24:00.032Z,17.20
2022-12-13T06:24:42.082Z,17.87
2022-12-13T06:25:30.566Z,19.80
2022-12-13T06:26:13.513Z,18.07
2022-12-13T06:26:55.251Z,17.50
2022-12-13T06:27:36.954Z,17.67
2022-12-13T06:28:18.535Z,17.90
2022-12-13T06:29:00.098Z,16.67
2022-12-13T06:29:42.250Z,16.47
2022-12-13T06:30:24.135Z,17.40
2022-12-13T06:31:05.888Z,16.90
2022-12-13T06:31:47.888Z,17.10
2022-12-13T06:32:29.487Z,17.07
2022-12-13T06:33:13.273Z,16.60
2022-12-13T06:33:55.067Z,17.30
2022-12-13T06:34:37.140Z,16.80
2022-12-13T06:35:28.678Z,17.77
2022-12-13T06:36:11.700Z,16.80
2022-12-13T06:36:53.383Z,16.90
2022-12-13T06:37:34.927Z,17.37
2022-12-13T06:38:30.990Z,17.13
2022-12-13T06:39:15.576Z,18.03
2022-12-13T06:39:57.190Z,18.17
2022-12-13T06:40:39.302Z,17.83
2022-12-13T06:41:21.106Z,19.70
2022-12-13T06:42:06.109Z,20.93
2022-12-13T06:42:47.951Z,19.03
2022-12-13T06:43:29.532Z,17.63
2022-12-13T06:44:11.586Z,18.57
2022-12-13T06:44:55.802Z,19.37
2022-12-13T06:45:41.058Z,19.23
2022-12-13T06:46:22.790Z,18.07
2022-12-13T06:47:11.492Z,19.63
2022-12-13T06:47:53.969Z,18.37
2022-12-13T06:48:35.725Z,18.27
2022-12-13T06:49:17.329Z,18.77
2022-12-13T06:49:58.880Z,18.13
2022-12-13T06:50:47.366Z,16.90
2022-12-13T06:51:32.529Z,17.40
2022-12-13T06:52:15.213Z,18.70
2022-12-13T06:52:56.835Z,18.97
2022-12-13T06:53:40.141Z,16.80
2022-12-13T06:54:22.190Z,18.37
2022-12-13T06:55:04.202Z,18.03
2022-12-13T06:55:45.932Z,17.20
2022-12-13T06:56:28.239Z,18.23
2022-12-13T06:57:13.367Z,17.10
2022-12-13T06:57:56.573Z,16.67
2022-12-13T06:58:39.212Z,16.77
2022-12-13T06:59:20.873Z,17.07
2022-12-13T07:00:04.860Z,18.07
2022-12-13T07:00:48.747Z,18.80
2022-12-13T07:01:37.628Z,18.40
2022-12-13T07:02:24.846Z,17.50
2022-12-13T07:03:08.784Z,17.57
2022-12-13T07:03:50.479Z,18.40
2022-12-13T07:04:32.871Z,17.77
2022-12-13T07:05:14.555Z,18.67
2022-12-13T07:05:58.360Z,18.50
2022-12-13T07:06:40.088Z,17.13
2022-12-13T07:07:22.598Z,18.57
2022-12-13T07:08:04.551Z,17.20
2022-12-13T07:08:51.512Z,17.90
2022-12-13T07:09:33.506Z,22.73
2022-12-13T07:10:22.654Z,18.83
2022-12-13T07:11:04.515Z,17.60
2022-12-13T07:11:51.768Z,17.70
2022-12-13T07:12:34.043Z,17.00
2022-12-13T07:13:15.669Z,17.63
2022-12-13T07:13:57.488Z,19.13
2022-12-13T07:14:41.076Z,18.77
2022-12-13T07:15:23.049Z,16.87
2022-12-13T07:16:05.052Z,18.17
2022-12-13T07:16:46.781Z,18.10
2022-12-13T07:17:33.084Z,17.00
2022-12-13T07:18:16.284Z,17.47
2022-12-13T07:19:01.288Z,17.93
2022-12-13T07:19:43.780Z,16.27
2022-12-13T07:20:25.568Z,17.23
2022-12-13T07:21:10.380Z,16.73
2022-12-13T07:22:05.706Z,15.77
2022-12-13T07:22:58.340Z,16.67
2022-12-13T07:23:41.521Z,17.43
2022-12-13T07:24:23.126Z,17.10
2022-12-13T07:25:05.180Z,17.47
2022-12-13T07:25:54.192Z,18.17
2022-12-13T07:26:35.810Z,17.60
2022-12-13T07:27:17.419Z,18.33
2022-12-13T07:28:02.655Z,17.97
2022-12-13T07:28:44.813Z,18.97
2022-12-13T07:29:26.392Z,18.43
2022-12-13T07:30:08.492Z,17.90
2022-12-13T07:30:50.326Z,18.27
2022-12-13T07:31:35.760Z,18.47
2022-12-13T07:32:17.387Z,17.83
2022-12-13T07:32:59.157Z,19.67
2022-12-13T07:33:41.041Z,18.43
2022-12-13T07:34:22.633Z,17.57
2022-12-13T07:35:04.429Z,17.10
2022-12-13T07:35:46.220Z,18.40
2022-12-13T07:36:27.877Z,17.20
2022-12-13T07:37:09.643Z,18.83
2022-12-13T07:38:12.217Z,17.17
2022-12-13T07:38:56.577Z,18.77
2022-12-13T07:39:38.175Z,19.23
2022-12-13T07:40:19.772Z,20.03
2022-12-13T07:41:01.938Z,20.73
2022-12-13T07:41:43.603Z,19.13
2022-12-13T07:42:26.006Z,19.90
2022-12-13T07:43:07.773Z,18.57
2022-12-13T07:43:49.489Z,18.77
2022-12-13T07:44:37.443Z,18.83
2022-12-13T07:45:20.166Z,18.53
2022-12-13T07:46:05.067Z,18.30
2022-12-13T07:46:46.720Z,18.87
2022-12-13T07:47:31.909Z,19.37
2022-12-13T07:48:13.773Z,19.47
2022-12-13T07:48:56.021Z,18.50
2022-12-13T07:49:43.504Z,26.57
2022-12-13T07:50:25.892Z,21.60
2022-12-13T07:51:11.642Z,22.83
2022-12-13T07:51:53.274Z,22.60
2022-12-13T07:52:34.834Z,20.83
2022-12-13T07:53:16.845Z,20.50
2022-12-13T07:53:58.760Z,20.03
2022-12-13T07:54:40.680Z,20.17
2022-12-13T07:55:23.054Z,19.03
2022-12-13T07:56:14.850Z,18.30
2022-12-13T07:57:01.158Z,16.60
2022-12-13T07:57:45.819Z,16.73
2022-12-13T07:58:29.656Z,17.30
2022-12-13T07:59:11.333Z,18.43
2022-12-13T07:59:53.109Z,17.27
2022-12-13T08:00:34.990Z,17.47
2022-12-13T08:01:16.677Z,17.70
2022-12-13T08:01:58.350Z,16.83
2022-12-13T08:02:43.491Z,16.37
2022-12-13T08:03:26.602Z,17.73
2022-12-13T08:04:08.543Z,20.20
2022-12-13T08:04:54.379Z,19.73
2022-12-13T08:05:38.970Z,18.57
2022-12-13T08:06:20.968Z,21.47
2022-12-13T08:07:02.626Z,18.10
2022-12-13T08:07:44.432Z,16.33
2022-12-13T08:08:30.834Z,17.73
2022-12-13T08:09:13.305Z,17.10
2022-12-13T08:09:55.452Z,19.00
2022-12-13T08:10:37.187Z,18.50
2022-12-13T08:11:18.755Z,20.00
2022-12-13T08:12:01.258Z,17.33
2022-12-13T08:12:42.904Z,19.60
2022-12-13T08:13:24.488Z,19.60
2022-12-13T08:14:06.336Z,18.33
2022-12-13T08:14:47.948Z,18.07
2022-12-13T08:15:34.892Z,20.97
2022-12-13T08:16:27.912Z,20.93
2022-12-13T08:17:10.661Z,17.50
2022-12-13T08:17:55.620Z,20.43
2022-12-13T08:18:39.291Z,17.27
2022-12-13T08:19:20.883Z,16.90
2022-12-13T08:20:02.557Z,16.70
2022-12-13T08:20:44.179Z,16.30
2022-12-13T08:21:52.351Z,15.97
2022-12-13T08:22:27.431Z,15.27
2022-12-13T08:23:17.762Z,16.67
2022-12-13T08:23:59.497Z,15.63
2022-12-13T08:24:41.205Z,16.10
2022-12-13T08:25:23.218Z,16.73
2022-12-13T08:26:06.204Z,15.13
2022-12-13T08:26:48.095Z,15.50
2022-12-13T08:27:30.608Z,16.30
2022-12-13T08:28:12.249Z,15.20
2022-12-13T08:28:54.064Z,16.57
2022-12-13T08:29:36.455Z,15.73
2022-12-13T08:30:23.217Z,16.73
2022-12-13T08:31:12.127Z,14.80
2022-12-13T08:31:53.766Z,15.73
2022-12-13T08:32:38.376Z,14.73
2022-12-13T08:33:20.721Z,15.13
2022-12-13T08:34:02.602Z,14.57
2022-12-13T08:34:45.551Z,16.23
2022-12-13T08:35:33.686Z,14.83
2022-12-13T08:36:17.874Z,14.87
2022-12-13T08:37:02.096Z,15.90
2022-12-13T08:37:45.158Z,15.00
2022-12-13T08:38:26.754Z,15.40
2022-12-13T08:39:09.027Z,15.83
2022-12-13T08:39:50.735Z,15.10
2022-12-13T08:40:32.980Z,15.20
2022-12-13T08:41:14.599Z,16.77
2022-12-13T08:41:56.285Z,15.93
2022-12-13T08:42:37.857Z,15.63
2022-12-13T08:43:24.896Z,15.50
2022-12-13T08:44:06.846Z,14.47
2022-12-13T08:44:50.534Z,15.17
2022-12-13T08:45:34.344Z,15.33
2022-12-13T08:46:16.267Z,16.13
2022-12-13T08:46:57.890Z,15.10
2022-12-13T08:47:42.172Z,14.97
2022-12-13T08:48:24.175Z,15.73
2022-12-13T08:49:05.966Z,15.50
2022-12-13T08:49:48.105Z,15.77
2022-12-13T08:50:30.741Z,15.77
2022-12-13T08:51:25.607Z,15.43
2022-12-13T08:52:09.162Z,15.97
2022-12-13T08:52:51.849Z,16.03
2022-12-13T08:53:40.949Z,16.60
2022-12-13T08:54:31.572Z,15.77
2022-12-13T08:55:15.377Z,18.20
2022-12-13T08:56:05.524Z,18.43
2022-12-13T08:56:47.079Z,17.27
2022-12-13T08:57:28.818Z,15.40
2022-12-13T08:58:10.429Z,16.47
2022-12-13T08:58:52.058Z,16.37
2022-12-13T08:59:33.699Z,15.47
2022-12-13T09:00:19.153Z,14.80
2022-12-13T09:01:00.803Z,14.97
2022-12-13T09:01:42.580Z,15.93
2022-12-13T09:02:24.246Z,18.57
2022-12-13T09:03:10.281Z,17.53
2022-12-13T09:03:52.206Z,16.40
2022-12-13T09:04:33.769Z,20.73
2022-12-13T09:05:33.789Z,17.43
2022-12-13T09:06:17.580Z,16.20
2022-12-13T09:07:01.967Z,16.07
2022-12-13T09:07:43.945Z,14.67
2022-12-13T09:08:25.815Z,16.57
2022-12-13T09:09:16.899Z,15.57
2022-12-13T09:09:58.750Z,14.30
2022-12-13T09:11:11.484Z,15.37
2022-12-13T09:12:03.577Z,15.20
2022-12-13T09:13:01.938Z,14.03
2022-12-13T09:13:45.151Z,14.90
2022-12-13T09:14:34.203Z,13.40
2022-12-13T09:15:21.915Z,13.80
2022-12-13T09:16:14.406Z,14.87
2022-12-13T09:17:05.420Z,13.57
2022-12-13T09:17:52.088Z,12.73
2022-12-13T09:18:36.522Z,14.77
2022-12-13T09:19:26.215Z,14.20
2022-12-13T09:20:28.557Z,13.33
2022-12-13T09:21:14.105Z,17.90
2022-12-13T09:22:05.261Z,16.17
2022-12-13T09:22:46.842Z,14.83
2022-12-13T09:23:28.728Z,14.33
2022-12-13T09:24:24.114Z,16.43
2022-12-13T09:25:06.822Z,15.40
2022-12-13T09:26:05.593Z,15.73
2022-12-13T09:26:48.323Z,15.60
2022-12-13T09:27:39.523Z,14.80
2022-12-13T09:28:22.188Z,14.87
2022-12-13T09:29:11.230Z,13.83
2022-12-13T09:29:53.440Z,15.50
2022-12-13T09:30:38.806Z,14.77
2022-12-13T09:31:20.797Z,15.00
2022-12-13T09:32:02.493Z,14.07
2022-12-13T09:32:49.702Z,15.70
2022-12-13T09:33:31.499Z,15.43
2022-12-13T09:34:13.173Z,13.77
2022-12-13T09:34:55.296Z,14.10
2022-12-13T09:35:38.624Z,14.20
2022-12-13T09:36:21.543Z,14.00
2022-12-13T09:37:03.212Z,13.90
2022-12-13T09:37:46.316Z,14.43
2022-12-13T09:38:28.024Z,14.77
2022-12-13T09:39:11.772Z,13.73
2022-12-13T09:39:54.985Z,13.77